Time;durP1;ratioP1;P1;durP2;ratioP2;P2;SDS_P1;SDS_P2;PMS_P1;PMS_P2;Temp;Humidity;BMP_temperature;BMP_pressure;BME280_temperature;BME280_humidity;BME280_pressure;Samples;Min_cycle;Max_cycle;Signal;HPM_P1;HPM_P2
2021/07/13 00:00:22;;;;;;;3.43;3.03;;;;;;;17.89;65.96;101300.44;5043765;28;20194;-66
2021/07/13 00:02:51;;;;;;;4.27;3.10;;;;;;;17.86;66.08;101302.56;5051428;28;20201;-66
2021/07/13 00:05:21;;;;;;;3.77;2.90;;;;;;;17.85;65.95;101307.13;5042051;28;20217;-66
2021/07/13 00:07:51;;;;;;;3.47;2.90;;;;;;;17.84;66.39;101304.56;5046303;28;20205;-66
2021/07/13 00:10:21;;;;;;;4.60;3.17;;;;;;;17.54;66.31;101254.63;5049376;28;20205;-66
2021/07/13 00:12:50;;;;;;;3.03;2.73;;;;;;;17.84;66.32;101299.13;5050469;28;20205;-66
2021/07/13 00:15:21;;;;;;;5.10;3.20;;;;;;;17.88;66.21;101311.44;5048270;28;20236;-66
2021/07/13 00:17:50;;;;;;;5.47;2.80;;;;;;;17.85;67.04;101314.44;5045966;28;20562;-66
2021/07/13 00:20:19;;;;;;;3.70;2.93;;;;;;;17.74;67.77;101314.50;5045883;28;20592;-66
2021/07/13 00:22:48;;;;;;;3.83;3.17;;;;;;;17.71;67.02;101323.78;5042804;28;20210;-66
2021/07/13 00:25:19;;;;;;;4.33;3.03;;;;;;;17.69;67.35;101323.94;5046950;28;20525;-66
2021/07/13 00:27:47;;;;;;;3.03;2.73;;;;;;;17.69;66.30;101323.94;5046174;28;20372;-66
2021/07/13 00:30:17;;;;;;;5.87;3.00;;;;;;;17.69;66.71;101323.94;5046920;28;20869;-66
2021/07/13 00:32:47;;;;;;;5.13;3.10;;;;;;;17.69;66.88;101323.94;5045201;28;20240;-66
2021/07/13 00:35:15;;;;;;;3.30;2.90;;;;;;;17.53;66.69;101295.53;5045153;28;20687;-65
2021/07/13 00:37:44;;;;;;;5.27;2.90;;;;;;;17.56;66.46;101295.25;5043791;28;20198;-66
2021/07/13 00:40:13;;;;;;;3.30;2.80;;;;;;;17.67;66.60;101316.91;5048012;28;20201;-66
2021/07/13 00:42:46;;;;;;;3.40;3.10;;;;;;;17.68;66.46;101307.75;5047041;28;20206;-66
2021/07/13 00:45:14;;;;;;;4.03;3.10;;;;;;;17.70;66.52;101305.78;5046704;28;20209;-67
2021/07/13 00:47:42;;;;;;;5.13;3.43;;;;;;;17.65;65.73;101294.41;5045510;28;20210;-67
2021/07/13 00:50:11;;;;;;;3.87;3.00;;;;;;;17.75;65.63;101311.66;5041338;28;20658;-67
2021/07/13 00:52:39;;;;;;;3.73;3.10;;;;;;;17.69;67.32;101315.78;5045330;28;20201;-67
2021/07/13 00:55:10;;;;;;;4.63;3.33;;;;;;;17.71;67.37;101317.50;5045969;28;20212;-67
2021/07/13 00:57:38;;;;;;;4.17;3.07;;;;;;;17.65;67.72;101325.16;5043136;28;20537;-67
2021/07/13 01:00:11;;;;;;;5.30;3.50;;;;;;;17.65;68.05;101316.16;5040850;28;20206;-67
2021/07/13 01:02:39;;;;;;;5.90;3.50;;;;;;;17.65;67.83;101316.16;5053160;28;20312;-67
2021/07/13 01:05:11;;;;;;;5.87;3.40;;;;;;;17.63;67.27;101313.56;5048586;28;20767;-67
2021/07/13 01:07:49;;;;;;;4.83;3.30;;;;;;;17.63;67.14;101315.44;5047031;28;20610;-67
2021/07/13 01:10:26;;;;;;;6.20;3.50;;;;;;;17.62;66.97;101316.44;5055131;28;20208;-67
2021/07/13 01:13:03;;;;;;;4.50;3.47;;;;;;;17.67;67.76;101317.78;5048098;28;20216;-67
2021/07/13 01:15:39;;;;;;;5.17;3.30;;;;;;;17.69;66.86;101318.50;5041920;28;20190;-67
2021/07/13 01:18:13;;;;;;;6.33;3.40;;;;;;;17.69;67.02;101296.75;5042173;28;20200;-66
2021/07/13 01:21:07;;;;;;;6.60;3.37;;;;;;;17.76;67.22;101296.25;5047172;28;20198;-67
2021/07/13 01:23:43;;;;;;;5.80;3.63;;;;;;;17.77;67.01;101295.25;5040842;28;20244;-66
2021/07/13 01:26:21;;;;;;;5.77;3.63;;;;;;;17.77;67.29;101293.38;5043827;28;20214;-66
2021/07/13 01:28:57;;;;;;;5.73;3.83;;;;;;;17.74;66.59;101292.75;5056036;28;20206;-66
2021/07/13 01:31:27;;;;;;;7.40;3.47;;;;;;;17.77;67.11;101297.97;5043968;28;20202;-66
2021/07/13 01:34:03;;;;;;;6.90;3.03;;;;;;;17.80;66.93;101300.41;5062131;28;20237;-66
2021/07/13 01:36:35;;;;;;;4.00;3.30;;;;;;;17.74;66.65;101298.19;5049246;28;20196;-66
2021/07/13 01:39:06;;;;;;;4.70;3.00;;;;;;;17.77;67.26;101306.97;5046921;28;20201;-66
2021/07/13 01:41:34;;;;;;;4.20;3.00;;;;;;;17.80;67.68;101312.13;5044374;28;20908;-66
2021/07/13 01:44:05;;;;;;;3.57;3.00;;;;;;;17.67;67.80;101292.47;5048198;28;20206;-66
2021/07/13 01:46:34;;;;;;;4.13;3.30;;;;;;;17.79;69.33;101312.25;5056978;28;20222;-67
2021/07/13 01:49:03;;;;;;;3.30;3.00;;;;;;;17.80;68.52;101313.97;5051589;28;20396;-66
2021/07/13 01:51:33;;;;;;;4.03;2.93;;;;;;;17.84;68.14;101310.00;5052498;28;20185;-66
2021/07/13 01:54:05;;;;;;;4.43;3.20;;;;;;;17.89;68.05;101307.72;5044727;28;20186;-69
2021/07/13 01:56:35;;;;;;;5.77;3.40;;;;;;;17.93;68.34;101314.59;5065898;28;20186;-69
2021/07/13 01:59:06;;;;;;;6.00;3.60;;;;;;;17.98;68.92;101306.88;5044201;28;20221;-69
2021/07/13 02:01:35;;;;;;;9.57;3.37;;;;;;;17.99;68.83;101300.44;5047324;28;20202;-69
2021/07/13 02:04:05;;;;;;;7.23;3.50;;;;;;;18.01;69.29;101306.59;5052650;28;20202;-69
2021/07/13 02:06:34;;;;;;;6.67;3.30;;;;;;;18.06;69.56;101307.06;5045827;28;20244;-70
2021/07/13 02:09:06;;;;;;;6.10;3.50;;;;;;;18.11;68.97;101303.94;5045286;28;20202;-69
2021/07/13 02:11:35;;;;;;;4.30;3.13;;;;;;;18.16;69.24;101309.81;5037681;28;20222;-69
2021/07/13 02:14:05;;;;;;;11.30;3.23;;;;;;;18.19;69.50;101298.66;5050603;28;20225;-70
2021/07/13 02:16:33;;;;;;;6.93;3.43;;;;;;;18.20;69.23;101301.22;5045851;28;20201;-69
2021/07/13 02:19:02;;;;;;;4.77;3.37;;;;;;;18.24;69.30;101293.66;5054334;28;20202;-69
2021/07/13 02:21:30;;;;;;;7.03;3.00;;;;;;;18.29;69.17;101288.66;5042826;28;20200;-66
2021/07/13 02:23:58;;;;;;;13.07;3.40;;;;;;;18.30;70.53;101295.81;5046535;28;20194;-66
2021/07/13 02:26:34;;;;;;;7.97;3.33;;;;;;;18.37;70.49;101298.81;5047242;28;20198;-66
2021/07/13 02:29:12;;;;;;;6.93;3.60;;;;;;;18.12;70.92;101260.31;5059512;28;20573;-66
2021/07/13 02:31:45;;;;;;;7.20;3.93;;;;;;;18.42;70.76;101302.88;5038735;28;20216;-66
2021/07/13 02:34:17;;;;;;;13.70;3.70;;;;;;;18.47;70.09;101294.28;5047320;28;20208;-66
2021/07/13 02:36:49;;;;;;;7.87;3.50;;;;;;;18.52;70.51;101300.16;5039879;28;20589;-66
2021/07/13 02:39:20;;;;;;;6.30;3.30;;;;;;;18.45;69.91;101283.53;5046460;28;20677;-66
2021/07/13 02:41:51;;;;;;;5.57;3.53;;;;;;;18.61;70.34;101316.47;5044685;28;20661;-67
2021/07/13 02:44:23;;;;;;;5.43;3.40;;;;;;;18.66;70.51;101316.06;5042285;28;20288;-66
2021/07/13 02:46:52;;;;;;;13.07;3.60;;;;;;;18.66;71.53;101316.06;5042241;28;20217;-66
2021/07/13 02:49:23;;;;;;;7.80;3.30;;;;;;;18.71;72.33;101316.53;5052911;28;20672;-66
2021/07/13 02:51:53;;;;;;;4.93;3.60;;;;;;;18.76;71.42;101311.50;5043010;28;20213;-66
2021/07/13 02:54:25;;;;;;;5.57;3.27;;;;;;;18.45;71.20;101244.59;5039314;28;20388;-66
2021/07/13 02:56:56;;;;;;;7.63;3.67;;;;;;;18.87;70.94;101311.34;5040603;28;20560;-66
2021/07/13 02:59:29;;;;;;;4.73;3.40;;;;;;;18.90;71.08;101318.38;5044920;28;20205;-66
2021/07/13 03:01:58;;;;;;;4.43;3.40;;;;;;;18.95;71.30;101323.38;5046362;28;20720;-66
2021/07/13 03:04:26;;;;;;;6.23;3.57;;;;;;;18.92;72.50;101300.03;5038376;28;20240;-66
2021/07/13 03:06:55;;;;;;;5.20;3.60;;;;;;;19.02;71.30;101308.22;5042833;28;20705;-66
2021/07/13 03:09:23;;;;;;;5.53;3.33;;;;;;;19.05;72.03;101313.38;5044205;28;20765;-66
2021/07/13 03:11:51;;;;;;;5.40;3.10;;;;;;;19.12;72.46;101323.53;5042563;28;20661;-67
2021/07/13 03:14:22;;;;;;;3.93;2.93;;;;;;;19.15;73.26;101325.97;5049182;28;20204;-71
2021/07/13 03:16:52;;;;;;;3.30;3.00;;;;;;;18.94;76.54;101311.63;5046717;28;20217;-71
2021/07/13 03:19:21;;;;;;;4.17;3.10;;;;;;;19.01;76.49;101323.69;5047633;28;20209;-71
2021/07/13 03:21:52;;;;;;;4.07;3.07;;;;;;;19.10;76.25;101321.94;5047975;28;20614;-71
2021/07/13 03:24:23;;;;;;;4.03;3.00;;;;;;;19.19;75.09;101329.25;5046533;28;20457;-71
2021/07/13 03:26:51;;;;;;;4.07;2.87;;;;;;;19.19;75.33;101326.53;5046341;28;20680;-71
2021/07/13 03:29:20;;;;;;;3.83;2.70;;;;;;;19.26;73.64;101338.53;5050634;28;20536;-71
2021/07/13 03:31:51;;;;;;;3.83;2.90;;;;;;;19.31;73.42;101329.97;5048563;28;20820;-71
2021/07/13 03:34:20;;;;;;;4.07;3.20;;;;;;;19.34;74.32;101329.66;5047698;28;20292;-72
2021/07/13 03:36:49;;;;;;;3.53;3.07;;;;;;;19.39;73.86;101330.09;5050581;28;21568;-71
2021/07/13 03:39:18;;;;;;;4.90;3.40;;;;;;;19.13;74.30;101280.81;5044974;28;20655;-71
2021/07/13 03:41:48;;;;;;;4.30;3.10;;;;;;;19.50;74.23;101333.47;5048061;28;20228;-71
2021/07/13 03:44:17;;;;;;;4.97;3.50;;;;;;;19.31;73.23;101289.97;5050315;28;20208;-72
2021/07/13 03:46:45;;;;;;;4.00;3.20;;;;;;;19.61;72.96;101331.66;5044316;28;20253;-71
2021/07/13 03:49:15;;;;;;;4.40;3.60;;;;;;;19.64;73.07;101332.22;5048004;28;20218;-71
2021/07/13 03:51:44;;;;;;;4.57;3.43;;;;;;;19.65;74.03;101333.94;5046798;28;20252;-71
2021/07/13 03:54:16;;;;;;;5.53;3.70;;;;;;;19.71;74.22;101335.19;5052954;28;20289;-71
2021/07/13 03:56:45;;;;;;;5.23;3.70;;;;;;;19.75;75.31;101339.34;5042280;28;20221;-72
2021/07/13 03:59:14;;;;;;;4.03;3.37;;;;;;;19.75;75.40;101336.59;5044068;28;20244;-71
2021/07/13 04:01:42;;;;;;;4.23;3.33;;;;;;;19.82;75.63;101340.44;5050018;28;20194;-72
2021/07/13 04:04:10;;;;;;;4.73;3.80;;;;;;;19.87;75.71;101340.00;5048788;28;20627;-71
2021/07/13 04:06:40;;;;;;;4.90;3.23;;;;;;;19.94;74.21;101339.28;5047743;28;20284;-72
2021/07/13 04:09:09;;;;;;;5.07;3.73;;;;;;;19.96;74.55;101329.06;5047928;28;20221;-71
2021/07/13 04:11:37;;;;;;;4.93;3.83;;;;;;;20.00;73.98;101335.94;5047991;28;20198;-71
2021/07/13 04:14:06;;;;;;;4.53;3.73;;;;;;;20.06;74.26;101342.66;5043102;28;20190;-71
2021/07/13 04:16:35;;;;;;;5.60;3.90;;;;;;;20.12;74.80;101336.59;5047929;28;20198;-71
2021/07/13 04:19:04;;;;;;;4.90;3.80;;;;;;;20.19;74.71;101336.84;5045667;28;20205;-71
2021/07/13 04:21:32;;;;;;;4.67;3.80;;;;;;;20.26;75.23;101335.25;5046416;28;20288;-71
2021/07/13 04:24:02;;;;;;;6.33;3.83;;;;;;;20.36;74.61;101338.75;5039628;28;20228;-72
2021/07/13 04:26:30;;;;;;;4.03;3.60;;;;;;;20.44;74.34;101341.59;5037753;28;20195;-71
2021/07/13 04:28:58;;;;;;;6.33;3.70;;;;;;;20.50;74.46;101335.53;5044578;28;20222;-70
2021/07/13 04:31:26;;;;;;;4.80;3.70;;;;;;;20.50;75.81;101340.13;5047814;28;20277;-72
2021/07/13 04:33:54;;;;;;;5.20;4.00;;;;;;;20.29;78.64;101343.97;5045983;28;20225;-72
2021/07/13 04:36:22;;;;;;;5.17;4.00;;;;;;;20.35;77.55;101342.50;5042696;28;20200;-71
2021/07/13 04:38:52;;;;;;;4.73;3.30;;;;;;;20.44;76.74;101341.59;5050144;28;20204;-68
2021/07/13 04:41:21;;;;;;;4.03;3.57;;;;;;;20.46;77.11;101345.03;5044112;28;20202;-72
2021/07/13 04:43:49;;;;;;;5.20;3.90;;;;;;;20.45;77.25;101343.31;5046295;28;20602;-72
2021/07/13 04:46:17;;;;;;;5.37;4.07;;;;;;;20.48;77.77;101345.75;5049279;28;20612;-71
2021/07/13 04:48:45;;;;;;;4.43;3.40;;;;;;;20.50;77.61;101343.72;5050677;28;20256;-72
2021/07/13 04:51:15;;;;;;;4.47;3.73;;;;;;;20.50;79.00;101341.00;5044538;28;20206;-70
2021/07/13 04:53:43;;;;;;;3.90;3.43;;;;;;;20.53;78.86;101329.78;5047029;28;20193;-69
2021/07/13 04:56:11;;;;;;;5.67;4.07;;;;;;;20.52;79.48;101328.06;5045055;28;20611;-70
2021/07/13 04:58:41;;;;;;;6.13;4.13;;;;;;;20.50;78.71;101305.50;5042661;28;20569;-70
2021/07/13 05:01:09;;;;;;;4.90;4.20;;;;;;;20.66;80.57;101311.16;5043242;28;20672;-69
2021/07/13 05:03:37;;;;;;;7.00;4.13;;;;;;;;;;5042185;28;20207;-70
2021/07/13 05:06:05;;;;;;;9.20;4.37;;;;;;;20.87;79.17;101316.31;5046985;28;20200;-70
2021/07/13 05:08:33;;;;;;;5.47;4.00;;;;;;;20.92;79.21;101296.72;5044682;28;20217;-70
2021/07/13 05:11:01;;;;;;;5.50;4.03;;;;;;;21.03;78.87;101301.91;5047029;28;20817;-70
2021/07/13 05:13:30;;;;;;;7.13;4.23;;;;;;;21.12;78.59;101308.31;5044371;28;21748;-70
2021/07/13 05:15:59;;;;;;;4.67;3.57;;;;;;;21.26;77.75;101299.59;5045941;28;20198;-70
2021/07/13 05:18:27;;;;;;;5.07;3.80;;;;;;;21.39;76.42;101302.75;5049642;28;20210;-70
2021/07/13 05:20:58;;;;;;;4.17;3.70;;;;;;;21.48;77.37;101295.47;5047193;28;20543;-70
2021/07/13 05:23:27;;;;;;;4.00;3.60;;;;;;;21.24;77.37;101253.28;5045943;28;20841;-70
2021/07/13 05:25:55;;;;;;;5.70;3.90;;;;;;;21.72;77.37;101289.25;5038372;28;20198;-70
2021/07/13 05:28:23;;;;;;;4.40;3.77;;;;;;;21.96;76.28;101281.19;5037768;28;20873;-68
2021/07/13 05:30:51;;;;;;;4.97;3.67;;;;;;;22.08;76.17;101285.38;5043682;28;20202;-68
2021/07/13 05:33:21;;;;;;;4.30;3.47;;;;;;;22.25;75.19;101291.75;5046554;28;20229;-69
2021/07/13 05:35:49;;;;;;;3.90;3.10;;;;;;;22.43;74.22;101277.94;5043217;28;20225;-69
2021/07/13 05:38:17;;;;;;;5.20;2.80;;;;;;;22.61;73.76;101282.25;5042106;28;20194;-67
2021/07/13 05:40:46;;;;;;;3.93;3.33;;;;;;;22.65;72.74;101287.38;5045795;28;20209;-67
2021/07/13 05:43:16;;;;;;;4.10;3.33;;;;;;;22.50;71.95;101282.56;5038878;28;20195;-67
2021/07/13 05:45:45;;;;;;;5.27;3.70;;;;;;;22.25;72.67;101286.28;5045840;28;20197;-67
2021/07/13 05:48:13;;;;;;;3.30;3.00;;;;;;;22.40;73.10;101290.09;5041541;28;20546;-67
2021/07/13 05:50:43;;;;;;;3.50;3.17;;;;;;;22.53;72.44;101292.34;5040609;28;20704;-68
2021/07/13 05:53:11;;;;;;;4.40;3.23;;;;;;;22.60;72.02;101302.44;5042183;28;20201;-68
2021/07/13 05:55:39;;;;;;;3.43;2.70;;;;;;;22.77;70.19;101291.53;5043885;28;20221;-68
2021/07/13 05:58:07;;;;;;;4.13;3.10;;;;;;;22.71;69.39;101300.41;5047446;28;20206;-68
2021/07/13 06:00:35;;;;;;;3.03;2.73;;;;;;;22.46;68.51;101291.31;5046043;28;20206;-68
2021/07/13 06:03:04;;;;;;;3.30;3.00;;;;;;;22.59;69.41;101295.25;5043882;28;20228;-68
2021/07/13 06:05:32;;;;;;;3.50;3.20;;;;;;;22.50;68.61;101284.47;5043446;28;20548;-68
2021/07/13 06:08:01;;;;;;;4.33;3.10;;;;;;;22.65;69.51;101284.63;5049217;28;20205;-67
2021/07/13 06:10:29;;;;;;;3.60;3.00;;;;;;;22.82;68.38;101289.16;5041392;28;20214;-67
2021/07/13 06:12:57;;;;;;;2.93;2.63;;;;;;;22.97;67.59;101289.34;5045108;28;20217;-67
2021/07/13 06:15:26;;;;;;;4.73;2.70;;;;;;;23.02;66.83;101295.16;5039923;28;20202;-68
2021/07/13 06:17:54;;;;;;;3.77;2.97;;;;;;;22.98;66.76;101294.66;5045039;28;20206;-68
2021/07/13 06:20:22;;;;;;;3.07;2.60;;;;;;;23.18;66.51;101285.03;5042720;28;20190;-67
2021/07/13 06:22:50;;;;;;;3.63;2.93;;;;;;;22.99;67.94;101274.44;5042576;28;20213;-67
2021/07/13 06:25:20;;;;;;;3.13;2.57;;;;;;;23.01;64.78;101266.91;5042084;28;20202;-68
2021/07/13 06:27:49;;;;;;;2.60;2.40;;;;;;;23.34;65.24;101261.38;5047271;28;20227;-68
2021/07/13 06:30:18;;;;;;;6.10;3.00;;;;;;;23.67;64.25;101260.28;5037156;28;20253;-68
2021/07/13 06:32:47;;;;;;;2.67;2.47;;;;;;;23.90;62.29;101268.63;5044420;28;20241;-68
2021/07/13 06:35:15;;;;;;;4.13;2.70;;;;;;;24.14;62.24;101264.88;5044774;28;20551;-68
2021/07/13 06:37:44;;;;;;;4.10;2.43;;;;;;;24.45;61.46;101264.91;5045430;28;20225;-68
2021/07/13 06:40:15;;;;;;;2.80;2.60;;;;;;;24.67;60.04;101269.56;5040342;28;20205;-68
2021/07/13 06:42:45;;;;;;;2.37;2.17;;;;;;;24.89;59.11;101258.75;5040791;28;20225;-67
2021/07/13 06:45:13;;;;;;;2.30;2.10;;;;;;;25.07;57.04;101268.38;5045099;28;20231;-67
2021/07/13 06:47:42;;;;;;;2.47;2.27;;;;;;;25.32;57.42;101255.25;5045584;28;20198;-68
2021/07/13 06:50:12;;;;;;;5.20;2.20;;;;;;;25.54;56.87;101258.13;5060235;28;20229;-67
2021/07/13 06:52:41;;;;;;;2.20;2.07;;;;;;;25.73;55.73;101270.53;5043846;28;20213;-68
2021/07/13 06:55:10;;;;;;;5.00;2.20;;;;;;;25.84;54.23;101275.53;5043219;28;20559;-67
2021/07/13 06:57:38;;;;;;;2.23;2.10;;;;;;;26.16;54.11;101288.03;5048622;28;20199;-67
2021/07/13 07:00:10;;;;;;;2.10;2.00;;;;;;;26.18;52.11;101289.53;5044002;28;20691;-68
2021/07/13 07:02:39;;;;;;;2.15;2.03;;;;;;;26.13;52.05;101296.69;5044789;28;20209;-68
2021/07/13 07:05:11;;;;;;;2.50;2.30;;;;;;;26.12;52.23;101279.31;5040875;28;20198;-70
2021/07/13 07:07:47;;;;;;;4.00;2.13;;;;;;;26.04;52.23;101297.84;5040134;28;20664;-70
2021/07/13 07:10:17;;;;;;;1.90;1.80;;;;;;;25.98;51.41;101299.44;5039904;28;20308;-70
2021/07/13 07:12:46;;;;;;;2.17;1.83;;;;;;;25.94;52.69;101295.34;5040687;28;20208;-70
2021/07/13 07:15:16;;;;;;;2.10;1.90;;;;;;;25.89;53.30;101297.84;5040040;28;20214;-70
2021/07/13 07:17:46;;;;;;;2.78;2.13;;;;;;;26.11;53.32;101293.25;5040651;28;20724;-70
2021/07/13 07:20:15;;;;;;;2.33;2.13;;;;;;;26.33;53.73;101294.16;5043639;28;20201;-70
2021/07/13 07:22:44;;;;;;;2.50;1.92;;;;;;;26.48;52.63;101284.84;5043293;28;20203;-69
2021/07/13 07:25:12;;;;;;;2.03;1.92;;;;;;;26.84;53.12;101281.19;5042462;28;20206;-69
2021/07/13 07:27:41;;;;;;;2.05;1.90;;;;;;;27.04;52.29;101268.47;5046096;28;20220;-69
2021/07/13 07:30:11;;;;;;;3.30;2.15;;;;;;;27.13;50.38;101280.22;5042118;28;20708;-69
2021/07/13 07:32:44;;;;;;;8.35;1.88;;;;;;;27.31;49.54;101276.97;5043607;28;20752;-69
2021/07/13 07:35:13;;;;;;;2.00;1.90;;;;;;;27.77;49.82;101269.88;5042550;28;20252;-69
2021/07/13 07:37:42;;;;;;;2.45;2.03;;;;;;;28.13;50.45;101282.56;5045236;28;20588;-69
2021/07/13 07:40:17;;;;;;;2.72;2.00;;;;;;;28.34;50.25;101281.63;5042824;28;20793;-69
2021/07/13 07:42:46;;;;;;;1.80;1.70;;;;;;;28.48;48.53;101280.63;5034209;28;20201;-69
2021/07/13 07:45:15;;;;;;;1.73;1.60;;;;;;;28.63;47.16;101274.91;5044053;28;20194;-68
2021/07/13 07:47:45;;;;;;;1.90;1.80;;;;;;;28.62;48.15;101279.59;5042883;28;20202;-68
2021/07/13 07:50:14;;;;;;;1.80;1.70;;;;;;;28.62;46.73;101271.31;5036504;28;20207;-68
2021/07/13 07:52:42;;;;;;;1.52;1.50;;;;;;;28.65;48.77;101272.78;5034081;28;20207;-68
2021/07/13 07:55:12;;;;;;;1.70;1.60;;;;;;;29.13;47.49;101264.38;5042944;28;20210;-68
2021/07/13 07:57:40;;;;;;;1.70;1.60;;;;;;;28.92;46.63;101277.34;5045371;28;20331;-67
2021/07/13 08:00:12;;;;;;;2.40;1.83;;;;;;;28.97;46.87;101283.06;5038643;28;20207;-68
2021/07/13 08:02:41;;;;;;;2.28;1.70;;;;;;;28.83;46.35;101277.72;5046089;28;20204;-68
2021/07/13 08:05:13;;;;;;;2.03;1.92;;;;;;;29.04;48.26;101272.88;5044261;28;20202;-68
2021/07/13 08:07:43;;;;;;;1.80;1.70;;;;;;;29.11;47.17;101267.34;5042156;28;20203;-68
2021/07/13 08:10:12;;;;;;;1.92;1.83;;;;;;;29.36;47.10;101267.53;5045082;28;20213;-68
2021/07/13 08:12:42;;;;;;;1.83;1.73;;;;;;;29.41;46.69;101234.53;5049438;28;20210;-68
2021/07/13 08:15:11;;;;;;;1.67;1.58;;;;;;;29.59;45.96;101267.97;5046160;28;20209;-68
2021/07/13 08:17:41;;;;;;;1.67;1.58;;;;;;;29.24;45.94;101269.25;5047618;28;20210;-68
2021/07/13 08:20:13;;;;;;;1.60;1.50;;;;;;;29.34;45.69;101261.34;5044554;28;20664;-68
2021/07/13 08:22:45;;;;;;;1.70;1.60;;;;;;;29.47;45.74;101255.84;5039768;28;20638;-68
2021/07/13 08:25:14;;;;;;;1.50;1.40;;;;;;;29.26;45.51;101228.38;5042529;28;20563;-68
2021/07/13 08:27:42;;;;;;;1.77;1.45;;;;;;;29.56;46.19;101256.47;5046227;28;20202;-68
2021/07/13 08:30:11;;;;;;;1.70;1.60;;;;;;;29.71;46.50;101256.22;5043689;28;20214;-68
2021/07/13 08:32:39;;;;;;;1.73;1.60;;;;;;;29.64;45.43;101257.06;5048143;28;20237;-68
2021/07/13 08:35:09;;;;;;;1.48;1.45;;;;;;;29.89;44.95;101256.38;5041018;28;20202;-68
2021/07/13 08:37:38;;;;;;;2.67;1.88;;;;;;;29.77;45.59;101258.97;5044377;28;20189;-68
2021/07/13 08:40:09;;;;;;;1.50;1.40;;;;;;;29.79;45.98;101251.28;5043706;28;20208;-68
2021/07/13 08:42:38;;;;;;;1.80;1.70;;;;;;;29.71;45.01;101251.53;5040615;28;20201;-68
2021/07/13 08:45:08;;;;;;;1.75;1.65;;;;;;;29.72;45.37;101252.41;5048124;28;20210;-68
2021/07/13 08:47:41;;;;;;;2.10;1.60;;;;;;;29.69;44.92;101248.09;5041681;28;20490;-68
2021/07/13 08:50:11;;;;;;;1.80;1.70;;;;;;;29.90;46.07;101261.69;5041475;28;20222;-68
2021/07/13 08:52:41;;;;;;;1.80;1.70;;;;;;;30.02;45.86;101249.94;5051390;28;20699;-68
2021/07/13 08:55:10;;;;;;;2.17;1.80;;;;;;;29.93;45.85;101250.16;5047340;28;20297;-68
2021/07/13 08:57:39;;;;;;;5.15;1.75;;;;;;;29.95;45.24;101247.19;5048568;28;20198;-68
2021/07/13 09:00:10;;;;;;;1.77;1.60;;;;;;;30.09;45.87;101251.63;5046053;28;20197;-68
2021/07/13 09:02:58;;;;;;;1.58;1.58;;;;;;;30.41;45.22;101247.00;5043845;28;20644;-68
2021/07/13 09:05:26;;;;;;;1.80;1.70;;;;;;;30.16;44.28;101251.59;5038758;28;20204;-68
2021/07/13 09:07:56;;;;;;;2.05;1.65;;;;;;;29.88;45.26;101240.81;5046022;28;20206;-69
2021/07/13 09:10:24;;;;;;;2.08;1.70;;;;;;;29.59;45.76;101243.03;5041507;28;20681;-68
2021/07/13 09:12:52;;;;;;;2.75;1.92;;;;;;;29.62;44.89;101236.22;5038962;28;20197;-68
2021/07/13 09:15:21;;;;;;;2.00;1.70;;;;;;;29.57;47.54;101238.78;5043378;28;20704;-68
2021/07/13 09:17:50;;;;;;;1.90;1.80;;;;;;;29.41;46.30;101234.53;5042465;28;20209;-68
2021/07/13 09:20:23;;;;;;;2.58;1.70;;;;;;;28.71;46.91;101228.56;5045099;28;20206;-68
2021/07/13 09:22:58;;;;;;;4.38;1.75;;;;;;;28.51;47.79;101233.22;5043182;28;20233;-67
2021/07/13 09:25:33;;;;;;;2.10;2.00;;;;;;;28.55;49.10;101234.50;5049064;28;20189;-68
2021/07/13 09:28:13;;;;;;;2.17;1.80;;;;;;;28.74;47.96;101239.19;5043650;28;20272;-68
2021/07/13 09:30:44;;;;;;;1.80;1.70;;;;;;;28.89;48.80;101235.41;5038788;28;20856;-68
2021/07/13 09:33:17;;;;;;;2.42;1.98;;;;;;;29.19;48.18;101219.25;5041569;28;20233;-68
2021/07/13 09:35:59;;;;;;;1.55;1.50;;;;;;;29.48;48.29;101212.41;5040420;28;20214;-68
2021/07/13 09:38:31;;;;;;;1.88;1.77;;;;;;;29.72;47.85;101217.25;5044803;28;20281;-68
2021/07/13 09:41:07;;;;;;;1.88;1.77;;;;;;;29.38;47.54;101210.88;5046867;28;20669;-68
2021/07/13 09:43:47;;;;;;;2.63;2.17;;;;;;;29.31;47.70;101206.44;5046967;28;20730;-68
2021/07/13 09:46:36;;;;;;;2.20;2.00;;;;;;;29.03;47.89;101198.38;5044060;28;20227;-68
2021/07/13 09:49:14;;;;;;;1.90;1.80;;;;;;;29.04;49.00;101214.75;5043829;28;20210;-68
2021/07/13 09:51:45;;;;;;;2.88;1.80;;;;;;;28.83;49.46;101208.59;5049122;28;20252;-68
2021/07/13 09:54:38;;;;;;;2.20;2.10;;;;;;;28.55;49.32;101212.38;5046495;28;20224;-67
2021/07/13 09:57:09;;;;;;;2.20;2.08;;;;;;;28.23;50.75;101207.63;5042275;28;20198;-68
2021/07/13 09:59:37;;;;;;;2.67;2.15;;;;;;;28.02;50.59;101194.78;5044388;28;20204;-67
2021/07/13 10:02:07;;;;;;;4.80;2.45;;;;;;;28.07;50.90;101193.09;5039240;28;20195;-67
2021/07/13 10:04:37;;;;;;;2.13;2.03;;;;;;;28.26;51.09;101185.13;5040180;28;20194;-67
2021/07/13 10:07:08;;;;;;;2.08;1.98;;;;;;;28.07;51.28;101187.56;5040112;28;20194;-67
2021/07/13 10:09:42;;;;;;;3.10;1.95;;;;;;;27.95;51.64;101199.44;5043758;28;20197;-67
2021/07/13 10:12:15;;;;;;;2.17;2.08;;;;;;;28.08;51.42;101188.44;5045474;28;20210;-67
2021/07/13 10:14:45;;;;;;;2.22;2.05;;;;;;;28.09;50.99;101185.47;5047411;28;20201;-67
2021/07/13 10:17:15;;;;;;;2.00;1.90;;;;;;;28.22;50.90;101187.41;5049293;28;20197;-67
2021/07/13 10:19:49;;;;;;;3.72;2.28;;;;;;;28.24;51.74;101187.22;5044351;28;20205;-68
2021/07/13 10:22:19;;;;;;;2.00;1.90;;;;;;;28.08;51.85;101196.72;5042079;28;20194;-67
2021/07/13 10:24:51;;;;;;;2.40;2.20;;;;;;;27.84;51.52;101193.44;5042359;28;20202;-68
2021/07/13 10:27:26;;;;;;;2.55;2.35;;;;;;;27.78;52.33;101194.28;5045322;28;20220;-68
2021/07/13 10:29:56;;;;;;;4.25;2.10;;;;;;;27.73;52.97;101193.19;5046137;28;20197;-67
2021/07/13 10:32:41;;;;;;;2.50;2.30;;;;;;;27.79;52.01;101195.13;5051219;28;20233;-68
2021/07/13 10:35:26;;;;;;;3.92;2.42;;;;;;;27.98;52.68;101199.03;5045875;28;20275;-67
2021/07/13 10:37:55;;;;;;;2.75;2.28;;;;;;;28.31;52.94;101196.41;5048715;28;20198;-67
2021/07/13 10:40:43;;;;;;;3.70;2.45;;;;;;;28.58;52.00;101195.38;5044075;28;20229;-67
2021/07/13 10:43:19;;;;;;;2.28;2.08;;;;;;;28.63;50.96;101151.34;5042575;28;20194;-68
2021/07/13 10:45:49;;;;;;;5.60;2.38;;;;;;;28.94;51.16;101188.59;5046107;28;20289;-66
2021/07/13 10:48:20;;;;;;;2.47;2.10;;;;;;;29.19;50.67;101192.41;5043232;28;20222;-67
2021/07/13 10:50:57;;;;;;;3.70;2.30;;;;;;;29.29;49.70;101198.34;5049199;28;21015;-67
2021/07/13 10:53:35;;;;;;;2.55;2.10;;;;;;;29.44;49.45;101211.09;5052183;28;20217;-68
2021/07/13 10:56:07;;;;;;;5.50;2.65;;;;;;;29.50;49.35;101213.03;5042993;28;20236;-67
2021/07/13 10:58:47;;;;;;;3.92;2.67;;;;;;;29.42;48.97;101213.25;5044296;28;20682;-67
2021/07/13 11:01:30;;;;;;;5.47;2.22;;;;;;;29.10;48.76;101170.72;5043770;28;20223;-67
2021/07/13 11:04:12;;;;;;;3.28;2.40;;;;;;;29.37;48.82;101209.19;5044229;28;20296;-67
2021/07/13 11:06:58;;;;;;;3.72;2.30;;;;;;;29.36;48.89;101204.72;5043712;28;20577;-67
2021/07/13 11:09:35;;;;;;;4.72;2.92;;;;;;;29.44;49.46;101212.00;5055180;28;20695;-67
2021/07/13 11:12:16;;;;;;;2.95;2.75;;;;;;;29.26;49.88;101215.38;5041399;28;20213;-67
2021/07/13 11:14:49;;;;;;;2.60;2.40;;;;;;;29.29;49.70;101201.13;5041589;28;20209;-68
2021/07/13 11:17:22;;;;;;;3.42;2.58;;;;;;;29.62;49.67;101212.13;5040824;28;20278;-68
2021/07/13 11:19:50;;;;;;;3.10;2.55;;;;;;;29.73;49.51;101196.78;5038904;28;20316;-68
2021/07/13 11:22:20;;;;;;;2.75;2.55;;;;;;;30.09;49.29;101209.22;5037955;28;20229;-68
2021/07/13 11:24:48;;;;;;;4.25;2.53;;;;;;;30.04;48.29;101203.50;5038746;28;20209;-68
2021/07/13 11:27:19;;;;;;;2.70;2.50;;;;;;;30.23;48.69;101194.22;5042012;28;20198;-68
2021/07/13 11:29:54;;;;;;;5.22;2.80;;;;;;;30.12;48.35;101193.00;5041983;28;20266;-68
2021/07/13 11:32:22;;;;;;;4.32;2.75;;;;;;;30.08;49.03;101185.34;5049192;28;20715;-67
2021/07/13 11:34:50;;;;;;;2.80;2.60;;;;;;;30.28;48.21;101184.16;5044559;28;20781;-68
2021/07/13 11:37:19;;;;;;;2.67;2.42;;;;;;;30.31;48.89;101193.97;5046959;28;20571;-67
2021/07/13 11:39:47;;;;;;;3.17;2.88;;;;;;;30.47;48.26;101182.31;5048162;28;20949;-67
2021/07/13 11:42:16;;;;;;;2.90;2.70;;;;;;;30.47;47.58;101182.31;5042578;28;20245;-68